createdAt,value
2017-10-01T00:00:05.935Z,1.40
2017-10-01T00:02:33.570Z,1.17
2017-10-01T00:05:01.951Z,1.50
2017-10-01T00:07:30.357Z,1.20
2017-10-01T00:09:57.967Z,2.17
2017-10-01T00:12:25.617Z,1.43
2017-10-01T00:14:53.231Z,1.90
2017-10-01T00:17:20.880Z,2.00
2017-10-01T00:19:48.594Z,2.40
2017-10-01T00:22:16.205Z,2.53
2017-10-01T00:24:44.637Z,2.07
2017-10-01T00:27:12.254Z,2.07
2017-10-01T00:29:40.626Z,1.80
2017-10-01T00:32:09.065Z,1.90
2017-10-01T00:34:36.678Z,2.30
2017-10-01T00:37:04.324Z,2.47
2017-10-01T00:39:32.711Z,2.43
2017-10-01T00:42:01.240Z,2.20
2017-10-01T00:44:28.858Z,2.67
2017-10-01T00:46:56.501Z,2.40
2017-10-01T00:49:24.878Z,2.70
2017-10-01T00:51:53.430Z,2.10
2017-10-01T00:54:21.039Z,2.80
2017-10-01T00:56:49.452Z,2.20
2017-10-01T00:59:17.127Z,2.60
2017-10-01T01:01:44.755Z,3.00
2017-10-01T01:04:12.403Z,2.00
2017-10-01T01:06:40.786Z,2.37
2017-10-01T01:09:09.223Z,2.47
2017-10-01T01:11:43.647Z,1.97
2017-10-01T01:14:11.496Z,2.63
2017-10-01T01:16:39.101Z,2.00
2017-10-01T01:19:07.486Z,1.87
2017-10-01T01:21:35.996Z,2.30
2017-10-01T01:24:03.612Z,2.70
2017-10-01T01:26:31.254Z,2.10
2017-10-01T01:28:58.903Z,1.87
2017-10-01T01:31:26.555Z,1.70
2017-10-01T01:33:54.170Z,1.97
2017-10-01T01:36:21.787Z,1.90
2017-10-01T01:38:49.429Z,1.93
2017-10-01T01:41:17.131Z,1.70
2017-10-01T01:43:44.769Z,1.70
2017-10-01T01:46:12.385Z,1.87
2017-10-01T01:48:40.820Z,1.20
2017-10-01T01:51:08.477Z,1.77
2017-10-01T01:53:36.255Z,1.87
2017-10-01T01:56:03.899Z,3.20
2017-10-01T01:58:31.517Z,1.50
2017-10-01T02:00:59.903Z,2.10
2017-10-01T02:03:28.315Z,1.93
2017-10-01T02:05:55.926Z,1.80
2017-10-01T02:08:23.664Z,1.90
2017-10-01T02:10:51.291Z,2.37
2017-10-01T02:13:18.947Z,2.13
2017-10-01T02:15:46.564Z,1.90
2017-10-01T02:18:14.200Z,2.00
2017-10-01T02:20:41.862Z,2.70
2017-10-01T02:23:09.483Z,2.33
2017-10-01T02:25:38.043Z,2.90
2017-10-01T02:28:06.435Z,3.57
2017-10-01T02:30:34.814Z,2.27
2017-10-01T02:33:03.209Z,2.07
2017-10-01T02:35:30.824Z,2.33
2017-10-01T02:37:58.481Z,2.30
2017-10-01T02:40:26.109Z,3.47
2017-10-01T02:42:53.775Z,3.07
2017-10-01T02:45:21.397Z,2.50
2017-10-01T02:47:49.783Z,2.80
2017-10-01T02:50:18.206Z,2.57
2017-10-01T02:52:45.820Z,3.07
2017-10-01T02:55:14.238Z,3.00
2017-10-01T02:57:41.848Z,2.47
2017-10-01T03:00:09.494Z,3.00
2017-10-01T03:02:37.168Z,3.47
2017-10-01T03:05:04.805Z,2.50
2017-10-01T03:07:32.429Z,3.23
2017-10-01T03:10:00.088Z,3.87
2017-10-01T03:12:28.506Z,3.20
2017-10-01T03:14:56.162Z,2.53
2017-10-01T03:17:23.814Z,3.37
2017-10-01T03:19:51.471Z,3.87
2017-10-01T03:22:19.077Z,3.00
2017-10-01T03:24:46.693Z,3.13
2017-10-01T03:27:14.337Z,2.80
2017-10-01T03:29:42.716Z,3.13
2017-10-01T03:32:11.135Z,2.80
2017-10-01T03:34:38.747Z,3.87
2017-10-01T03:37:07.192Z,3.60
2017-10-01T03:39:34.826Z,4.30
2017-10-01T03:42:02.429Z,3.30
2017-10-01T03:44:30.078Z,4.43
2017-10-01T03:46:57.724Z,4.63
2017-10-01T03:49:25.344Z,3.60
2017-10-01T03:51:53.759Z,4.60
2017-10-01T03:54:21.377Z,4.37
2017-10-01T03:56:49.821Z,3.50
2017-10-01T03:59:17.431Z,3.63
2017-10-01T04:01:45.042Z,3.77
2017-10-01T04:04:12.690Z,3.30
2017-10-01T04:06:40.305Z,4.90
2017-10-01T04:09:08.732Z,4.07
2017-10-01T04:11:36.354Z,3.77
2017-10-01T04:14:04.759Z,3.80
2017-10-01T04:16:32.402Z,5.10
2017-10-01T04:19:00.217Z,3.90
2017-10-01T04:21:27.870Z,4.80
2017-10-01T04:23:55.491Z,5.60
2017-10-01T04:26:23.206Z,3.57
2017-10-01T04:28:50.855Z,4.83
2017-10-01T04:31:18.466Z,5.23
2017-10-01T04:33:46.853Z,5.47
2017-10-01T04:36:14.519Z,6.07
2017-10-01T04:38:42.153Z,4.60
2017-10-01T04:41:09.819Z,3.73
2017-10-01T04:43:38.215Z,3.73
2017-10-01T04:46:06.614Z,5.13
2017-10-01T04:48:34.265Z,6.17
2017-10-01T04:51:01.978Z,4.80
2017-10-01T04:53:29.598Z,5.30
2017-10-01T04:55:57.258Z,4.07
2017-10-01T04:58:24.881Z,6.87
2017-10-01T05:00:53.259Z,5.57
2017-10-01T05:03:20.901Z,7.57
2017-10-01T05:05:48.522Z,6.23
2017-10-01T05:08:16.152Z,7.80
2017-10-01T05:10:44.576Z,5.10
2017-10-01T05:13:12.190Z,5.50
2017-10-01T05:15:39.804Z,7.40
2017-10-01T05:18:07.594Z,5.30
2017-10-01T05:20:35.231Z,5.40
2017-10-01T05:23:02.847Z,5.23
2017-10-01T05:25:31.265Z,7.50
2017-10-01T05:27:58.895Z,7.47
2017-10-01T05:30:27.345Z,6.13
2017-10-01T05:32:54.983Z,6.70
2017-10-01T05:35:22.602Z,10.47
2017-10-01T05:37:51.033Z,9.20
2017-10-01T05:40:18.654Z,6.53
2017-10-01T05:42:46.270Z,7.67
2017-10-01T05:45:14.118Z,7.10
2017-10-01T05:47:41.750Z,7.00
2017-10-01T05:50:09.367Z,7.90
2017-10-01T05:52:37.015Z,8.50
2017-10-01T05:55:04.637Z,6.83
2017-10-01T05:57:32.266Z,7.90
2017-10-01T06:00:00.682Z,7.53
2017-10-01T06:02:28.290Z,8.10
2017-10-01T06:04:55.908Z,9.50
2017-10-01T06:07:23.567Z,9.00
2017-10-01T06:09:51.188Z,9.37
2017-10-01T06:12:18.818Z,8.50
2017-10-01T06:14:46.479Z,10.20
2017-10-01T06:17:14.084Z,9.60
2017-10-01T06:19:42.467Z,7.33
2017-10-01T06:22:13.254Z,11.27
2017-10-01T06:24:41.793Z,9.57
2017-10-01T06:27:10.230Z,7.90
2017-10-01T06:29:37.899Z,7.10
2017-10-01T06:32:05.642Z,7.00
2017-10-01T06:34:33.259Z,9.60
2017-10-01T06:37:01.687Z,9.17
2017-10-01T06:39:29.310Z,9.40
2017-10-01T06:41:57.103Z,8.70
2017-10-01T06:44:24.876Z,8.47
2017-10-01T06:46:52.523Z,8.53
2017-10-01T06:49:20.202Z,9.53
2017-10-01T06:51:47.879Z,8.10
2017-10-01T06:54:15.520Z,13.43
2017-10-01T06:56:43.131Z,10.73
2017-10-01T06:59:12.681Z,10.60
2017-10-01T07:01:40.515Z,10.33
2017-10-01T07:04:08.913Z,11.43
2017-10-01T07:06:42.706Z,9.93
2017-10-01T07:09:11.463Z,11.27
2017-10-01T07:11:39.198Z,10.67
2017-10-01T07:14:07.059Z,13.73
2017-10-01T07:16:34.702Z,8.37
2017-10-01T07:19:02.795Z,9.90
2017-10-01T07:21:30.522Z,9.00
2017-10-01T07:23:58.920Z,11.93
2017-10-01T07:26:26.573Z,10.80
2017-10-01T07:28:54.185Z,8.80
2017-10-01T07:31:21.827Z,10.30
2017-10-01T07:33:49.498Z,12.57
2017-10-01T07:36:17.127Z,13.40
2017-10-01T07:38:44.743Z,13.50
2017-10-01T07:41:12.447Z,10.10
2017-10-01T07:43:40.077Z,8.83
2017-10-01T07:46:07.710Z,10.43
2017-10-01T07:48:35.377Z,10.40
2017-10-01T07:51:03.009Z,11.13
2017-10-01T07:53:30.645Z,10.23
2017-10-01T07:55:58.323Z,11.20
2017-10-01T07:58:25.947Z,10.80
2017-10-01T08:00:53.576Z,12.40
2017-10-01T08:03:21.237Z,10.60
2017-10-01T08:05:48.859Z,10.80
2017-10-01T08:08:16.491Z,9.40
2017-10-01T08:10:44.195Z,11.10
2017-10-01T08:13:11.822Z,10.47
2017-10-01T08:15:40.206Z,8.60
2017-10-01T08:18:08.620Z,9.87
2017-10-01T08:20:36.242Z,8.30
2017-10-01T08:23:03.907Z,9.57
2017-10-01T08:25:32.282Z,9.50
2017-10-01T08:27:59.942Z,11.53
2017-10-01T08:30:27.556Z,9.33
2017-10-01T08:32:55.194Z,5.97
2017-10-01T08:35:22.845Z,8.53
2017-10-01T08:37:51.222Z,6.93
2017-10-01T08:40:19.594Z,7.80
2017-10-01T08:42:48.019Z,6.60
2017-10-01T08:45:15.632Z,7.67
2017-10-01T08:47:43.260Z,6.10
2017-10-01T08:50:10.939Z,8.00
2017-10-01T08:52:38.556Z,5.87
2017-10-01T08:55:06.162Z,7.13
2017-10-01T08:57:33.806Z,4.80
2017-10-01T09:00:01.407Z,6.10
2017-10-01T09:02:29.811Z,7.00
2017-10-01T09:04:57.427Z,6.70
2017-10-01T09:07:25.049Z,6.37
2017-10-01T09:09:52.700Z,6.03
2017-10-01T09:12:20.324Z,4.97
2017-10-01T09:14:48.757Z,5.90
2017-10-01T09:17:16.382Z,5.67
2017-10-01T09:19:44.763Z,5.67
2017-10-01T09:22:13.172Z,5.07
2017-10-01T09:24:40.867Z,4.97
2017-10-01T09:27:08.525Z,5.70
2017-10-01T09:29:36.227Z,6.80
2017-10-01T09:32:04.630Z,5.20
2017-10-01T09:34:32.278Z,5.50
2017-10-01T09:37:00.660Z,5.00
2017-10-01T09:39:28.343Z,4.43
2017-10-01T09:41:55.982Z,5.50
2017-10-01T09:44:24.360Z,5.80
2017-10-01T09:46:52.778Z,4.40
2017-10-01T09:49:20.406Z,5.70
2017-10-01T09:51:48.131Z,4.30
2017-10-01T09:54:15.815Z,3.93
2017-10-01T09:56:44.200Z,3.50
2017-10-01T09:59:12.577Z,4.63
2017-10-01T10:01:40.991Z,3.83
2017-10-01T10:04:08.607Z,4.20
2017-10-01T10:06:36.987Z,3.77
2017-10-01T10:09:06.799Z,3.27
2017-10-01T10:11:34.454Z,4.07
2017-10-01T10:14:02.098Z,3.40
2017-10-01T10:16:30.475Z,2.97
2017-10-01T10:18:58.090Z,3.27
2017-10-01T10:21:25.734Z,2.53
2017-10-01T10:23:54.114Z,3.20
2017-10-01T10:26:22.483Z,3.07
2017-10-01T10:28:50.130Z,2.33
2017-10-01T10:31:17.763Z,2.43
2017-10-01T10:33:45.424Z,2.20
2017-10-01T10:36:13.031Z,2.23
2017-10-01T10:38:41.422Z,2.57
2017-10-01T10:41:09.846Z,2.73
2017-10-01T10:43:37.450Z,2.33
2017-10-01T10:46:05.830Z,2.40
2017-10-01T10:48:34.287Z,2.43
2017-10-01T10:51:01.917Z,3.37
2017-10-01T10:53:29.574Z,2.00
2017-10-01T10:55:57.191Z,2.00
2017-10-01T10:58:24.815Z,2.00
2017-10-01T11:00:52.478Z,1.73
2017-10-01T11:03:20.093Z,2.63
2017-10-01T11:05:48.519Z,2.50
2017-10-01T11:08:16.119Z,3.03
2017-10-01T11:10:43.750Z,1.83
2017-10-01T11:13:11.406Z,2.20
2017-10-01T11:15:39.008Z,2.93
2017-10-01T11:18:06.734Z,2.37
2017-10-01T11:20:34.398Z,2.50
2017-10-01T11:23:02.262Z,1.90
2017-10-01T11:25:29.871Z,1.90
2017-10-01T11:27:58.295Z,1.83
2017-10-01T11:30:25.905Z,2.40
2017-10-01T11:32:54.301Z,2.37
2017-10-01T11:35:21.947Z,2.10
2017-10-01T11:37:50.338Z,2.30
2017-10-01T11:40:18.759Z,2.40
2017-10-01T11:42:46.425Z,3.30
2017-10-01T11:45:14.054Z,2.10
2017-10-01T11:47:41.702Z,1.80
2017-10-01T11:50:10.095Z,2.30
2017-10-01T11:52:37.754Z,2.00
2017-10-01T11:55:06.388Z,2.20
2017-10-01T11:57:34.022Z,1.93
2017-10-01T12:00:01.662Z,2.10
2017-10-01T12:02:29.284Z,2.27
2017-10-01T12:04:56.927Z,2.03
2017-10-01T12:07:24.596Z,2.10
2017-10-01T12:09:52.230Z,2.20
2017-10-01T12:12:19.839Z,2.23
2017-10-01T12:14:47.511Z,2.27
2017-10-01T12:17:15.906Z,1.87
2017-10-01T12:19:43.551Z,2.30
2017-10-01T12:22:11.211Z,1.87
2017-10-01T12:24:38.824Z,2.30
2017-10-01T12:27:06.441Z,1.77
2017-10-01T12:29:34.865Z,2.13
2017-10-01T12:32:02.491Z,1.70
2017-10-01T12:34:30.957Z,1.80
2017-10-01T12:36:58.563Z,2.40
2017-10-01T12:39:26.241Z,2.03
2017-10-01T12:41:53.904Z,1.80
2017-10-01T12:44:21.508Z,1.93
2017-10-01T12:46:49.127Z,2.10
2017-10-01T12:49:16.806Z,1.80
2017-10-01T12:51:44.418Z,1.93
2017-10-01T12:54:12.843Z,1.90
2017-10-01T12:56:40.458Z,1.73
2017-10-01T12:59:08.838Z,1.27
2017-10-01T13:01:42.135Z,1.43
2017-10-01T13:04:09.847Z,1.80
2017-10-01T13:06:37.661Z,2.40
2017-10-01T13:09:05.329Z,1.93
2017-10-01T13:11:33.056Z,2.37
2017-10-01T13:14:00.811Z,2.47
2017-10-01T13:16:28.566Z,2.10
2017-10-01T13:18:56.259Z,1.87
2017-10-01T13:21:24.718Z,2.23
2017-10-01T13:23:52.448Z,3.30
2017-10-01T13:26:20.130Z,3.47
2017-10-01T13:28:47.851Z,2.43
2017-10-01T13:31:16.394Z,2.70
2017-10-01T13:33:44.173Z,2.20
2017-10-01T13:36:11.929Z,2.37
2017-10-01T13:38:39.624Z,2.73
2017-10-01T13:41:08.196Z,1.67
2017-10-01T13:43:37.062Z,2.23
2017-10-01T13:46:05.029Z,2.13
2017-10-01T13:48:32.792Z,1.97
2017-10-01T13:51:00.609Z,1.97
2017-10-01T13:53:28.331Z,2.40
2017-10-01T13:55:55.988Z,2.10
2017-10-01T13:58:23.661Z,2.63
2017-10-01T14:00:51.429Z,1.83
2017-10-01T14:03:19.152Z,2.70
2017-10-01T14:05:46.859Z,2.53
2017-10-01T14:08:15.329Z,2.17
2017-10-01T14:10:43.041Z,4.23
2017-10-01T14:13:10.832Z,3.83
2017-10-01T14:15:38.526Z,2.27
2017-10-01T14:18:06.176Z,2.87
2017-10-01T14:20:33.934Z,2.97
2017-10-01T14:23:01.650Z,2.10
2017-10-01T14:25:29.397Z,1.73
2017-10-01T14:27:57.852Z,2.03
2017-10-01T14:30:31.222Z,2.53
2017-10-01T14:32:58.917Z,2.47
2017-10-01T14:35:26.619Z,1.77
2017-10-01T14:37:54.437Z,2.20
2017-10-01T14:40:22.133Z,1.63
2017-10-01T14:42:50.546Z,1.70
2017-10-01T14:45:19.109Z,1.77
2017-10-01T14:47:46.834Z,2.07
2017-10-01T14:50:14.544Z,2.30
2017-10-01T14:55:23.479Z,2.63
2017-10-01T14:57:51.165Z,2.40
2017-10-01T15:00:18.862Z,2.17
2017-10-01T15:02:46.576Z,1.77
2017-10-01T15:05:14.259Z,1.70
2017-10-01T15:07:41.976Z,1.93
2017-10-01T15:10:11.793Z,2.00
2017-10-01T15:12:39.516Z,2.50
2017-10-01T15:15:07.414Z,2.17
2017-10-01T15:17:35.316Z,2.03
2017-10-01T15:20:04.791Z,2.00
2017-10-01T15:22:34.492Z,2.20
2017-10-01T15:25:03.060Z,1.97
2017-10-01T15:27:30.775Z,1.43
2017-10-01T15:29:58.564Z,1.73
2017-10-01T15:32:26.272Z,2.00
2017-10-01T15:34:53.933Z,1.80
2017-10-01T15:37:21.748Z,2.00
2017-10-01T15:39:49.434Z,2.47
2017-10-01T15:42:17.861Z,1.77
2017-10-01T15:44:48.556Z,1.90
2017-10-01T15:47:16.565Z,2.40
2017-10-01T15:49:44.938Z,1.80
2017-10-01T15:52:13.361Z,2.90
2017-10-01T15:54:40.968Z,2.00
2017-10-01T15:57:08.643Z,2.00
2017-10-01T15:59:37.021Z,1.90
2017-10-01T16:02:05.389Z,2.20
2017-10-01T16:04:33.027Z,1.90
2017-10-01T16:07:00.650Z,2.40
2017-10-01T16:09:28.310Z,1.80
2017-10-01T16:11:55.943Z,1.63
2017-10-01T16:14:24.329Z,1.83
2017-10-01T16:16:52.754Z,1.70
2017-10-01T16:19:20.375Z,2.20
2017-10-01T16:21:48.757Z,1.80
2017-10-01T16:24:16.432Z,1.80
2017-10-01T16:26:44.043Z,1.77
2017-10-01T16:29:11.688Z,2.27
2017-10-01T16:31:39.301Z,2.20
2017-10-01T16:34:07.685Z,1.90
2017-10-01T16:36:35.342Z,1.80
2017-10-01T16:39:03.723Z,1.70
2017-10-01T16:41:32.147Z,1.87
2017-10-01T16:44:00.532Z,1.80
2017-10-01T16:46:28.153Z,2.00
2017-10-01T16:48:56.105Z,2.60
2017-10-01T16:51:24.677Z,2.00
2017-10-01T16:53:52.531Z,2.03
2017-10-01T16:56:20.484Z,1.90
2017-10-01T16:58:48.099Z,2.37
2017-10-01T17:01:15.710Z,3.07
2017-10-01T17:03:43.361Z,2.60
2017-10-01T17:06:10.979Z,1.97
2017-10-01T17:08:39.368Z,2.23
2017-10-01T17:11:07.007Z,2.47
2017-10-01T17:13:35.393Z,2.87
2017-10-01T17:16:03.817Z,4.53
2017-10-01T17:18:31.428Z,2.20
2017-10-01T17:20:59.818Z,2.20
2017-10-01T17:23:28.593Z,2.70
2017-10-01T17:25:56.974Z,2.37
2017-10-01T17:28:25.396Z,2.17
2017-10-01T17:30:53.054Z,2.70
2017-10-01T17:33:20.672Z,2.47
2017-10-01T17:35:48.322Z,2.10
2017-10-01T17:38:15.955Z,2.30
2017-10-01T17:40:43.597Z,2.23
2017-10-01T17:43:11.287Z,3.60
2017-10-01T17:45:38.952Z,2.17
2017-10-01T17:48:06.560Z,2.47
2017-10-01T17:50:34.977Z,2.20
2017-10-01T17:53:02.591Z,3.33
2017-10-01T17:55:31.059Z,2.77
2017-10-01T17:57:59.610Z,2.67
2017-10-01T18:00:27.362Z,2.10
2017-10-01T18:02:55.022Z,3.07
2017-10-01T18:05:22.670Z,3.20
2017-10-01T18:07:50.306Z,2.30
2017-10-01T18:10:18.758Z,2.20
2017-10-01T18:12:46.405Z,2.17
2017-10-01T18:15:14.193Z,2.53
2017-10-01T18:17:41.805Z,1.87
2017-10-01T18:20:09.414Z,1.90
2017-10-01T18:22:37.059Z,2.77
2017-10-01T18:25:05.018Z,2.13
2017-10-01T18:27:32.627Z,2.20
2017-10-01T18:30:01.194Z,2.23
2017-10-01T18:32:29.583Z,2.67
2017-10-01T18:34:57.214Z,2.20
2017-10-01T18:37:24.884Z,2.13
2017-10-01T18:39:52.498Z,2.00
2017-10-01T18:42:20.144Z,2.57
2017-10-01T18:44:48.536Z,2.53
2017-10-01T18:47:16.154Z,3.13
2017-10-01T18:49:43.794Z,2.90
2017-10-01T18:52:11.415Z,2.30
2017-10-01T18:54:39.082Z,2.23
2017-10-01T18:57:06.773Z,3.47
2017-10-01T18:59:34.553Z,2.97
2017-10-01T19:02:02.962Z,2.93
2017-10-01T19:04:30.584Z,2.73
2017-10-01T19:06:58.248Z,2.70
2017-10-01T19:09:25.876Z,3.33
2017-10-01T19:11:53.488Z,3.13
2017-10-01T19:14:21.125Z,2.80
2017-10-01T19:16:48.780Z,2.73
2017-10-01T19:19:16.412Z,2.47
2017-10-01T19:21:44.839Z,4.83
2017-10-01T19:24:12.471Z,1.97
2017-10-01T19:26:40.632Z,2.73
2017-10-01T19:29:09.059Z,3.03
2017-10-01T19:31:36.676Z,2.63
2017-10-01T19:34:05.064Z,2.70
2017-10-01T19:36:32.718Z,3.60
2017-10-01T19:39:01.105Z,2.60
2017-10-01T19:41:28.754Z,3.10
2017-10-01T19:43:57.131Z,3.57
2017-10-01T19:46:25.509Z,3.10
2017-10-01T19:48:53.919Z,2.33
2017-10-01T19:51:21.539Z,3.30
2017-10-01T19:53:49.922Z,2.80
2017-10-01T19:56:18.333Z,2.77
2017-10-01T19:58:47.274Z,3.33
2017-10-01T20:01:14.956Z,2.70
2017-10-01T20:03:43.378Z,2.90
2017-10-01T20:06:11.020Z,3.20
2017-10-01T20:08:38.661Z,2.90
2017-10-01T20:11:07.071Z,2.50
2017-10-01T20:13:34.699Z,3.33
2017-10-01T20:16:03.118Z,2.27
2017-10-01T20:18:30.735Z,3.10
2017-10-01T20:20:58.388Z,3.60
2017-10-01T20:23:26.005Z,2.97
2017-10-01T20:25:53.630Z,3.00
2017-10-01T20:28:22.040Z,2.43
2017-10-01T20:30:49.675Z,2.77
2017-10-01T20:33:18.803Z,2.57
2017-10-01T20:35:46.437Z,3.23
2017-10-01T20:38:14.860Z,4.17
2017-10-01T20:40:42.504Z,3.13
2017-10-01T20:43:10.196Z,3.20
2017-10-01T20:45:37.857Z,3.53
2017-10-01T20:48:05.488Z,3.77
2017-10-01T20:50:33.117Z,2.87
2017-10-01T20:53:00.766Z,3.37
2017-10-01T20:55:28.656Z,2.87
2017-10-01T20:57:56.347Z,3.53
2017-10-01T21:00:23.966Z,3.17
2017-10-01T21:02:51.731Z,3.93
2017-10-01T21:05:19.456Z,2.57
2017-10-01T21:07:47.064Z,3.20
2017-10-01T21:10:15.443Z,3.90
2017-10-01T21:12:43.869Z,2.90
2017-10-01T21:15:11.517Z,2.50
2017-10-01T21:17:39.148Z,4.50
2017-10-01T21:20:07.556Z,3.80
2017-10-01T21:22:35.878Z,3.47
2017-10-01T21:25:03.540Z,3.23
2017-10-01T21:27:31.189Z,3.13
2017-10-01T21:29:58.812Z,3.80
2017-10-01T21:32:26.450Z,4.07
2017-10-01T21:34:54.065Z,2.67
2017-10-01T21:37:21.868Z,3.40
2017-10-01T21:39:49.490Z,2.97
2017-10-01T21:42:17.099Z,4.00
2017-10-01T21:44:45.551Z,3.10
2017-10-01T21:47:13.323Z,2.93
2017-10-01T21:49:40.944Z,2.83
2017-10-01T21:52:08.588Z,3.00
2017-10-01T21:54:36.209Z,2.80
2017-10-01T21:57:03.897Z,3.50
2017-10-01T21:59:32.306Z,2.80
2017-10-01T22:01:59.924Z,2.90
2017-10-01T22:04:28.600Z,2.40
2017-10-01T22:06:56.214Z,3.13
2017-10-01T22:09:23.826Z,2.30
2017-10-01T22:11:52.389Z,2.80
2017-10-01T22:14:19.998Z,2.77
2017-10-01T22:16:48.411Z,3.00
2017-10-01T22:19:16.029Z,2.37
2017-10-01T22:21:44.406Z,3.13
2017-10-01T22:24:12.040Z,3.07
2017-10-01T22:26:39.652Z,2.20
2017-10-01T22:29:07.314Z,2.20
2017-10-01T22:31:34.925Z,2.53
2017-10-01T22:34:02.537Z,2.40
2017-10-01T22:36:30.186Z,2.30
2017-10-01T22:38:58.570Z,2.60
2017-10-01T22:41:26.997Z,2.07
2017-10-01T22:43:54.606Z,2.50
2017-10-01T22:46:22.335Z,2.90
2017-10-01T22:48:49.994Z,2.73
2017-10-01T22:51:17.654Z,2.47
2017-10-01T22:53:45.260Z,2.60
2017-10-01T22:56:13.901Z,3.17
2017-10-01T22:58:41.499Z,2.80
2017-10-01T23:01:09.884Z,2.50
2017-10-01T23:03:37.547Z,2.57
2017-10-01T23:06:05.172Z,2.10
2017-10-01T23:08:32.833Z,3.63
2017-10-01T23:11:00.483Z,2.67
2017-10-01T23:13:28.114Z,2.43
2017-10-01T23:15:55.774Z,2.60
2017-10-01T23:18:23.469Z,2.80
2017-10-01T23:20:51.095Z,2.40
2017-10-01T23:23:18.738Z,2.07
2017-10-01T23:25:47.125Z,2.53
2017-10-01T23:28:15.560Z,2.90
2017-10-01T23:30:43.179Z,2.73
2017-10-01T23:33:10.796Z,3.57
2017-10-01T23:35:38.451Z,3.10
2017-10-01T23:38:06.075Z,3.63
2017-10-01T23:40:33.689Z,2.23
2017-10-01T23:43:01.334Z,2.93
2017-10-01T23:45:28.956Z,3.30
2017-10-01T23:47:56.869Z,3.17
2017-10-01T23:50:24.490Z,3.20
2017-10-01T23:52:52.108Z,2.63
2017-10-01T23:55:19.751Z,2.87
2017-10-01T23:57:47.380Z,3.00
